sensor_id;sensor_type;location;lat;lon;timestamp;P1;durP1;ratioP1;P2;durP2;ratioP2
15061;SDS011;7630;50.306;8.566;2023-10-19T00:01:33;29.77;;;24.40;;
15061;SDS011;7630;50.306;8.566;2023-10-19T00:05:35;27.70;;;24.30;;
15061;SDS011;7630;50.306;8.566;2023-10-19T00:09:36;24.73;;;21.70;;
15061;SDS011;7630;50.306;8.566;2023-10-19T00:13:39;23.70;;;21.20;;
15061;SDS011;7630;50.306;8.566;2023-10-19T00:17:41;23.07;;;19.60;;
15061;SDS011;7630;50.306;8.566;2023-10-19T00:21:44;17.20;;;15.33;;
15061;SDS011;7630;50.306;8.566;2023-10-19T00:25:51;17.43;;;15.63;;
15061;SDS011;7630;50.306;8.566;2023-10-19T00:29:52;13.43;;;12.13;;
15061;SDS011;7630;50.306;8.566;2023-10-19T00:33:55;11.57;;;10.47;;
15061;SDS011;7630;50.306;8.566;2023-10-19T00:37:57;11.33;;;10.33;;
15061;SDS011;7630;50.306;8.566;2023-10-19T00:42:00;8.73;;;8.03;;
15061;SDS011;7630;50.306;8.566;2023-10-19T00:46:03;8.43;;;7.73;;
15061;SDS011;7630;50.306;8.566;2023-10-19T00:50:09;8.67;;;7.97;;
15061;SDS011;7630;50.306;8.566;2023-10-19T00:58:33;9.13;;;8.43;;
15061;SDS011;7630;50.306;8.566;2023-10-19T01:02:37;9.00;;;8.23;;
15061;SDS011;7630;50.306;8.566;2023-10-19T01:06:41;7.93;;;7.23;;
15061;SDS011;7630;50.306;8.566;2023-10-19T01:10:44;8.63;;;7.93;;
15061;SDS011;7630;50.306;8.566;2023-10-19T01:19:08;9.10;;;8.20;;
15061;SDS011;7630;50.306;8.566;2023-10-19T01:23:09;9.73;;;8.83;;
15061;SDS011;7630;50.306;8.566;2023-10-19T01:27:12;9.97;;;9.07;;
15061;SDS011;7630;50.306;8.566;2023-10-19T01:31:15;12.07;;;10.90;;
15061;SDS011;7630;50.306;8.566;2023-10-19T01:35:25;14.57;;;13.03;;
15061;SDS011;7630;50.306;8.566;2023-10-19T01:39:27;16.27;;;14.60;;
15061;SDS011;7630;50.306;8.566;2023-10-19T01:43:28;20.67;;;18.47;;
15061;SDS011;7630;50.306;8.566;2023-10-19T01:47:33;21.17;;;18.20;;
15061;SDS011;7630;50.306;8.566;2023-10-19T01:51:35;21.50;;;18.83;;
15061;SDS011;7630;50.306;8.566;2023-10-19T01:55:39;22.50;;;20.20;;
15061;SDS011;7630;50.306;8.566;2023-10-19T01:59:40;21.87;;;19.53;;
15061;SDS011;7630;50.306;8.566;2023-10-19T02:03:43;27.00;;;21.80;;
15061;SDS011;7630;50.306;8.566;2023-10-19T02:07:44;29.77;;;24.50;;
15061;SDS011;7630;50.306;8.566;2023-10-19T02:11:46;33.37;;;26.80;;
15061;SDS011;7630;50.306;8.566;2023-10-19T02:15:48;47.97;;;33.00;;
15061;SDS011;7630;50.306;8.566;2023-10-19T02:19:50;53.07;;;34.07;;
15061;SDS011;7630;50.306;8.566;2023-10-19T02:23:51;55.63;;;34.87;;
15061;SDS011;7630;50.306;8.566;2023-10-19T02:27:52;54.00;;;36.10;;
15061;SDS011;7630;50.306;8.566;2023-10-19T02:31:53;54.50;;;37.40;;
15061;SDS011;7630;50.306;8.566;2023-10-19T02:35:56;57.33;;;38.53;;
15061;SDS011;7630;50.306;8.566;2023-10-19T02:39:57;57.50;;;35.77;;
15061;SDS011;7630;50.306;8.566;2023-10-19T02:43:59;63.53;;;35.70;;
15061;SDS011;7630;50.306;8.566;2023-10-19T02:48:09;81.10;;;38.70;;
15061;SDS011;7630;50.306;8.566;2023-10-19T02:52:12;76.57;;;40.67;;
15061;SDS011;7630;50.306;8.566;2023-10-19T02:56:15;68.80;;;40.47;;
15061;SDS011;7630;50.306;8.566;2023-10-19T03:00:17;52.57;;;36.37;;
15061;SDS011;7630;50.306;8.566;2023-10-19T03:04:20;54.17;;;36.23;;
15061;SDS011;7630;50.306;8.566;2023-10-19T03:08:22;53.57;;;36.67;;
15061;SDS011;7630;50.306;8.566;2023-10-19T03:12:25;54.23;;;38.30;;
15061;SDS011;7630;50.306;8.566;2023-10-19T03:16:27;54.20;;;34.93;;
15061;SDS011;7630;50.306;8.566;2023-10-19T03:20:30;60.47;;;38.00;;
15061;SDS011;7630;50.306;8.566;2023-10-19T03:24:33;64.97;;;37.87;;
15061;SDS011;7630;50.306;8.566;2023-10-19T03:28:38;111.50;;;42.90;;
15061;SDS011;7630;50.306;8.566;2023-10-19T03:32:41;118.33;;;45.57;;
15061;SDS011;7630;50.306;8.566;2023-10-19T03:36:43;86.17;;;40.43;;
15061;SDS011;7630;50.306;8.566;2023-10-19T03:40:44;72.20;;;39.57;;
15061;SDS011;7630;50.306;8.566;2023-10-19T03:44:50;83.67;;;43.07;;
15061;SDS011;7630;50.306;8.566;2023-10-19T03:48:57;87.93;;;43.63;;
15061;SDS011;7630;50.306;8.566;2023-10-19T03:53:00;68.87;;;39.53;;
15061;SDS011;7630;50.306;8.566;2023-10-19T03:57:01;92.47;;;45.47;;
15061;SDS011;7630;50.306;8.566;2023-10-19T04:01:04;81.13;;;43.10;;
15061;SDS011;7630;50.306;8.566;2023-10-19T04:05:06;72.13;;;41.50;;
15061;SDS011;7630;50.306;8.566;2023-10-19T04:09:09;76.17;;;41.87;;
15061;SDS011;7630;50.306;8.566;2023-10-19T04:13:11;67.07;;;40.03;;
15061;SDS011;7630;50.306;8.566;2023-10-19T04:17:14;75.80;;;43.53;;
15061;SDS011;7630;50.306;8.566;2023-10-19T04:21:18;71.20;;;38.33;;
15061;SDS011;7630;50.306;8.566;2023-10-19T04:25:19;78.90;;;43.17;;
15061;SDS011;7630;50.306;8.566;2023-10-19T04:29:21;84.20;;;43.93;;
15061;SDS011;7630;50.306;8.566;2023-10-19T04:33:24;84.93;;;46.37;;
15061;SDS011;7630;50.306;8.566;2023-10-19T04:37:27;91.50;;;51.40;;
15061;SDS011;7630;50.306;8.566;2023-10-19T04:41:28;98.50;;;51.83;;
15061;SDS011;7630;50.306;8.566;2023-10-19T04:45:30;105.47;;;48.90;;
15061;SDS011;7630;50.306;8.566;2023-10-19T04:49:31;120.23;;;50.30;;
15061;SDS011;7630;50.306;8.566;2023-10-19T04:53:32;161.97;;;46.60;;
15061;SDS011;7630;50.306;8.566;2023-10-19T04:57:33;163.80;;;49.13;;
15061;SDS011;7630;50.306;8.566;2023-10-19T05:01:35;127.63;;;47.33;;
15061;SDS011;7630;50.306;8.566;2023-10-19T05:05:38;102.67;;;46.30;;
15061;SDS011;7630;50.306;8.566;2023-10-19T05:09:39;97.93;;;44.47;;
15061;SDS011;7630;50.306;8.566;2023-10-19T05:13:40;90.70;;;48.40;;
15061;SDS011;7630;50.306;8.566;2023-10-19T05:17:41;103.33;;;49.63;;
15061;SDS011;7630;50.306;8.566;2023-10-19T05:21:42;119.87;;;50.00;;
15061;SDS011;7630;50.306;8.566;2023-10-19T05:25:44;101.20;;;47.47;;
15061;SDS011;7630;50.306;8.566;2023-10-19T05:29:45;129.60;;;49.53;;
15061;SDS011;7630;50.306;8.566;2023-10-19T05:33:46;122.40;;;47.53;;
15061;SDS011;7630;50.306;8.566;2023-10-19T05:37:49;202.33;;;53.67;;
15061;SDS011;7630;50.306;8.566;2023-10-19T05:41:50;218.03;;;49.27;;
15061;SDS011;7630;50.306;8.566;2023-10-19T05:45:52;187.53;;;50.60;;
15061;SDS011;7630;50.306;8.566;2023-10-19T05:49:53;187.63;;;45.17;;
15061;SDS011;7630;50.306;8.566;2023-10-19T05:53:54;231.30;;;48.20;;
15061;SDS011;7630;50.306;8.566;2023-10-19T05:57:57;182.20;;;45.67;;
15061;SDS011;7630;50.306;8.566;2023-10-19T06:02:00;189.73;;;50.70;;
15061;SDS011;7630;50.306;8.566;2023-10-19T06:06:01;176.93;;;46.47;;
15061;SDS011;7630;50.306;8.566;2023-10-19T06:10:02;215.20;;;46.97;;
15061;SDS011;7630;50.306;8.566;2023-10-19T06:14:07;172.90;;;44.90;;
15061;SDS011;7630;50.306;8.566;2023-10-19T06:18:08;152.83;;;47.43;;
15061;SDS011;7630;50.306;8.566;2023-10-19T06:22:11;114.90;;;44.60;;
15061;SDS011;7630;50.306;8.566;2023-10-19T06:26:13;180.63;;;47.73;;
15061;SDS011;7630;50.306;8.566;2023-10-19T06:30:16;134.77;;;45.13;;
15061;SDS011;7630;50.306;8.566;2023-10-19T06:34:19;117.83;;;45.73;;
15061;SDS011;7630;50.306;8.566;2023-10-19T06:38:21;99.03;;;44.60;;
15061;SDS011;7630;50.306;8.566;2023-10-19T06:42:22;118.60;;;47.83;;
15061;SDS011;7630;50.306;8.566;2023-10-19T06:46:24;103.90;;;45.07;;
15061;SDS011;7630;50.306;8.566;2023-10-19T06:50:26;100.33;;;42.77;;
15061;SDS011;7630;50.306;8.566;2023-10-19T06:54:27;104.40;;;47.97;;
15061;SDS011;7630;50.306;8.566;2023-10-19T06:58:29;107.27;;;47.53;;
15061;SDS011;7630;50.306;8.566;2023-10-19T07:02:31;94.27;;;50.53;;
15061;SDS011;7630;50.306;8.566;2023-10-19T07:06:32;78.10;;;45.17;;
15061;SDS011;7630;50.306;8.566;2023-10-19T07:10:33;72.93;;;45.07;;
15061;SDS011;7630;50.306;8.566;2023-10-19T07:14:37;66.37;;;44.40;;
15061;SDS011;7630;50.306;8.566;2023-10-19T07:18:38;73.00;;;46.70;;
15061;SDS011;7630;50.306;8.566;2023-10-19T07:22:40;62.63;;;42.73;;
15061;SDS011;7630;50.306;8.566;2023-10-19T07:26:43;73.47;;;46.40;;
15061;SDS011;7630;50.306;8.566;2023-10-19T07:30:46;61.13;;;44.33;;
15061;SDS011;7630;50.306;8.566;2023-10-19T07:34:47;59.67;;;41.30;;
15061;SDS011;7630;50.306;8.566;2023-10-19T07:38:49;61.07;;;41.40;;
15061;SDS011;7630;50.306;8.566;2023-10-19T07:42:50;58.90;;;41.67;;
15061;SDS011;7630;50.306;8.566;2023-10-19T07:46:54;51.73;;;38.13;;
15061;SDS011;7630;50.306;8.566;2023-10-19T07:50:56;44.30;;;36.70;;
15061;SDS011;7630;50.306;8.566;2023-10-19T07:54:58;43.37;;;34.40;;
15061;SDS011;7630;50.306;8.566;2023-10-19T07:58:59;40.43;;;34.03;;
15061;SDS011;7630;50.306;8.566;2023-10-19T08:03:01;39.17;;;31.73;;
15061;SDS011;7630;50.306;8.566;2023-10-19T08:07:04;33.50;;;30.10;;
15061;SDS011;7630;50.306;8.566;2023-10-19T08:11:05;31.37;;;27.10;;
15061;SDS011;7630;50.306;8.566;2023-10-19T08:15:07;33.93;;;29.17;;
15061;SDS011;7630;50.306;8.566;2023-10-19T08:19:14;32.77;;;28.40;;
15061;SDS011;7630;50.306;8.566;2023-10-19T08:23:16;52.03;;;30.33;;
15061;SDS011;7630;50.306;8.566;2023-10-19T08:27:19;39.07;;;29.70;;
15061;SDS011;7630;50.306;8.566;2023-10-19T08:31:20;33.43;;;28.73;;
15061;SDS011;7630;50.306;8.566;2023-10-19T08:35:21;34.77;;;30.13;;
15061;SDS011;7630;50.306;8.566;2023-10-19T08:39:24;34.33;;;28.67;;
15061;SDS011;7630;50.306;8.566;2023-10-19T08:43:26;28.37;;;25.40;;
15061;SDS011;7630;50.306;8.566;2023-10-19T08:47:28;25.43;;;22.90;;
15061;SDS011;7630;50.306;8.566;2023-10-19T08:51:31;23.10;;;20.70;;
15061;SDS011;7630;50.306;8.566;2023-10-19T08:55:32;25.50;;;19.87;;
15061;SDS011;7630;50.306;8.566;2023-10-19T08:59:38;21.73;;;19.73;;
15061;SDS011;7630;50.306;8.566;2023-10-19T09:03:39;18.37;;;16.77;;
15061;SDS011;7630;50.306;8.566;2023-10-19T09:07:41;23.50;;;17.10;;
15061;SDS011;7630;50.306;8.566;2023-10-19T09:11:43;17.70;;;16.03;;
15061;SDS011;7630;50.306;8.566;2023-10-19T09:15:44;19.83;;;17.30;;
15061;SDS011;7630;50.306;8.566;2023-10-19T09:19:46;18.30;;;16.53;;
15061;SDS011;7630;50.306;8.566;2023-10-19T09:23:51;17.93;;;16.10;;
15061;SDS011;7630;50.306;8.566;2023-10-19T09:27:52;19.47;;;17.43;;
15061;SDS011;7630;50.306;8.566;2023-10-19T09:31:54;18.90;;;17.10;;
15061;SDS011;7630;50.306;8.566;2023-10-19T09:35:57;20.47;;;18.40;;
15061;SDS011;7630;50.306;8.566;2023-10-19T09:40:01;21.80;;;19.60;;
15061;SDS011;7630;50.306;8.566;2023-10-19T09:44:04;22.50;;;20.40;;
15061;SDS011;7630;50.306;8.566;2023-10-19T09:48:09;23.70;;;21.33;;
15061;SDS011;7630;50.306;8.566;2023-10-19T09:52:12;25.17;;;22.63;;
15061;SDS011;7630;50.306;8.566;2023-10-19T09:56:20;24.07;;;21.77;;
15061;SDS011;7630;50.306;8.566;2023-10-19T10:00:29;22.70;;;20.40;;
15061;SDS011;7630;50.306;8.566;2023-10-19T10:04:32;21.90;;;19.70;;
15061;SDS011;7630;50.306;8.566;2023-10-19T10:08:38;24.60;;;22.13;;
15061;SDS011;7630;50.306;8.566;2023-10-19T10:12:40;32.53;;;22.53;;
15061;SDS011;7630;50.306;8.566;2023-10-19T10:16:41;21.10;;;19.00;;
15061;SDS011;7630;50.306;8.566;2023-10-19T10:20:42;22.20;;;20.10;;
15061;SDS011;7630;50.306;8.566;2023-10-19T10:24:43;21.80;;;19.13;;
15061;SDS011;7630;50.306;8.566;2023-10-19T10:28:45;22.30;;;20.13;;
15061;SDS011;7630;50.306;8.566;2023-10-19T10:37:04;24.30;;;21.93;;
15061;SDS011;7630;50.306;8.566;2023-10-19T10:41:19;23.77;;;21.37;;
15061;SDS011;7630;50.306;8.566;2023-10-19T10:45:23;26.67;;;24.03;;
15061;SDS011;7630;50.306;8.566;2023-10-19T10:49:24;26.13;;;23.10;;
15061;SDS011;7630;50.306;8.566;2023-10-19T10:53:26;29.97;;;26.43;;
15061;SDS011;7630;50.306;8.566;2023-10-19T10:57:31;30.03;;;26.90;;
15061;SDS011;7630;50.306;8.566;2023-10-19T11:01:34;32.27;;;26.03;;
15061;SDS011;7630;50.306;8.566;2023-10-19T11:05:35;28.67;;;25.60;;
15061;SDS011;7630;50.306;8.566;2023-10-19T11:09:44;23.97;;;20.17;;
15061;SDS011;7630;50.306;8.566;2023-10-19T11:13:46;22.47;;;20.37;;
15061;SDS011;7630;50.306;8.566;2023-10-19T11:17:47;19.30;;;17.43;;
15061;SDS011;7630;50.306;8.566;2023-10-19T11:21:52;19.97;;;18.13;;
15061;SDS011;7630;50.306;8.566;2023-10-19T11:25:59;23.13;;;19.63;;
15061;SDS011;7630;50.306;8.566;2023-10-19T11:30:03;19.70;;;17.90;;
15061;SDS011;7630;50.306;8.566;2023-10-19T11:34:05;20.27;;;18.27;;
15061;SDS011;7630;50.306;8.566;2023-10-19T11:38:07;21.27;;;18.97;;
15061;SDS011;7630;50.306;8.566;2023-10-19T11:42:09;23.60;;;21.07;;
15061;SDS011;7630;50.306;8.566;2023-10-19T11:46:10;23.73;;;21.47;;
15061;SDS011;7630;50.306;8.566;2023-10-19T11:50:12;22.87;;;20.50;;
15061;SDS011;7630;50.306;8.566;2023-10-19T11:54:15;23.80;;;21.40;;
15061;SDS011;7630;50.306;8.566;2023-10-19T11:58:18;22.77;;;20.43;;
15061;SDS011;7630;50.306;8.566;2023-10-19T12:02:19;22.30;;;20.00;;
15061;SDS011;7630;50.306;8.566;2023-10-19T12:06:21;22.50;;;19.20;;
15061;SDS011;7630;50.306;8.566;2023-10-19T12:10:24;19.47;;;17.77;;
15061;SDS011;7630;50.306;8.566;2023-10-19T12:14:27;16.33;;;14.57;;
15061;SDS011;7630;50.306;8.566;2023-10-19T12:18:28;17.67;;;14.47;;
15061;SDS011;7630;50.306;8.566;2023-10-19T12:22:30;18.33;;;14.57;;
15061;SDS011;7630;50.306;8.566;2023-10-19T12:26:33;16.57;;;13.23;;
15061;SDS011;7630;50.306;8.566;2023-10-19T12:30:34;15.13;;;12.27;;
15061;SDS011;7630;50.306;8.566;2023-10-19T12:34:40;19.07;;;15.53;;
15061;SDS011;7630;50.306;8.566;2023-10-19T12:38:42;15.00;;;12.00;;
15061;SDS011;7630;50.306;8.566;2023-10-19T12:42:43;13.90;;;12.47;;
15061;SDS011;7630;50.306;8.566;2023-10-19T12:46:44;14.20;;;12.70;;
15061;SDS011;7630;50.306;8.566;2023-10-19T12:50:45;13.00;;;11.70;;
15061;SDS011;7630;50.306;8.566;2023-10-19T12:54:47;12.60;;;11.40;;
15061;SDS011;7630;50.306;8.566;2023-10-19T12:58:50;11.00;;;9.97;;
15061;SDS011;7630;50.306;8.566;2023-10-19T13:02:51;13.07;;;11.77;;
15061;SDS011;7630;50.306;8.566;2023-10-19T13:06:58;15.00;;;10.40;;
15061;SDS011;7630;50.306;8.566;2023-10-19T13:10:59;14.13;;;12.27;;
15061;SDS011;7630;50.306;8.566;2023-10-19T13:15:02;14.30;;;12.87;;
15061;SDS011;7630;50.306;8.566;2023-10-19T13:19:12;15.27;;;12.50;;
15061;SDS011;7630;50.306;8.566;2023-10-19T13:23:14;17.07;;;11.33;;
15061;SDS011;7630;50.306;8.566;2023-10-19T13:27:20;16.70;;;11.93;;
15061;SDS011;7630;50.306;8.566;2023-10-19T13:31:22;12.50;;;10.80;;
15061;SDS011;7630;50.306;8.566;2023-10-19T13:35:23;13.93;;;12.57;;
15061;SDS011;7630;50.306;8.566;2023-10-19T13:39:24;12.77;;;11.47;;
15061;SDS011;7630;50.306;8.566;2023-10-19T13:43:26;12.90;;;11.33;;
15061;SDS011;7630;50.306;8.566;2023-10-19T13:47:27;11.77;;;10.13;;
15061;SDS011;7630;50.306;8.566;2023-10-19T13:51:28;12.30;;;11.07;;
15061;SDS011;7630;50.306;8.566;2023-10-19T13:55:30;14.63;;;11.77;;
15061;SDS011;7630;50.306;8.566;2023-10-19T13:59:32;17.23;;;14.13;;
15061;SDS011;7630;50.306;8.566;2023-10-19T14:03:36;17.13;;;12.07;;
15061;SDS011;7630;50.306;8.566;2023-10-19T14:07:38;16.83;;;14.93;;
15061;SDS011;7630;50.306;8.566;2023-10-19T14:11:40;18.47;;;16.63;;
15061;SDS011;7630;50.306;8.566;2023-10-19T14:15:42;21.43;;;18.07;;
15061;SDS011;7630;50.306;8.566;2023-10-19T14:19:44;18.80;;;17.10;;
15061;SDS011;7630;50.306;8.566;2023-10-19T14:23:46;22.37;;;20.17;;
15061;SDS011;7630;50.306;8.566;2023-10-19T14:27:49;24.40;;;22.27;;
15061;SDS011;7630;50.306;8.566;2023-10-19T14:31:52;34.97;;;30.73;;
15061;SDS011;7630;50.306;8.566;2023-10-19T14:35:53;32.00;;;28.90;;
15061;SDS011;7630;50.306;8.566;2023-10-19T14:39:54;26.50;;;24.03;;
15061;SDS011;7630;50.306;8.566;2023-10-19T14:43:55;26.97;;;24.47;;
15061;SDS011;7630;50.306;8.566;2023-10-19T14:47:57;30.33;;;27.10;;
15061;SDS011;7630;50.306;8.566;2023-10-19T14:52:01;30.30;;;27.23;;
15061;SDS011;7630;50.306;8.566;2023-10-19T14:56:04;30.53;;;27.30;;
15061;SDS011;7630;50.306;8.566;2023-10-19T15:00:07;32.37;;;29.17;;
15061;SDS011;7630;50.306;8.566;2023-10-19T15:04:16;35.10;;;31.80;;
15061;SDS011;7630;50.306;8.566;2023-10-19T15:08:17;36.37;;;32.67;;
15061;SDS011;7630;50.306;8.566;2023-10-19T15:12:20;40.50;;;36.50;;
15061;SDS011;7630;50.306;8.566;2023-10-19T15:16:22;42.27;;;38.07;;
15061;SDS011;7630;50.306;8.566;2023-10-19T15:20:27;42.70;;;38.37;;
15061;SDS011;7630;50.306;8.566;2023-10-19T15:24:30;46.00;;;41.10;;
15061;SDS011;7630;50.306;8.566;2023-10-19T15:28:32;43.07;;;38.87;;
15061;SDS011;7630;50.306;8.566;2023-10-19T15:32:34;46.33;;;40.57;;
15061;SDS011;7630;50.306;8.566;2023-10-19T15:36:36;46.53;;;41.53;;
15061;SDS011;7630;50.306;8.566;2023-10-19T15:40:38;50.10;;;42.83;;
15061;SDS011;7630;50.306;8.566;2023-10-19T15:44:41;51.30;;;46.03;;
15061;SDS011;7630;50.306;8.566;2023-10-19T15:52:47;60.47;;;50.10;;
15061;SDS011;7630;50.306;8.566;2023-10-19T15:56:48;54.00;;;46.07;;
15061;SDS011;7630;50.306;8.566;2023-10-19T16:00:50;55.10;;;45.30;;
15061;SDS011;7630;50.306;8.566;2023-10-19T16:04:51;57.60;;;44.70;;
15061;SDS011;7630;50.306;8.566;2023-10-19T16:08:52;54.57;;;45.37;;
15061;SDS011;7630;50.306;8.566;2023-10-19T16:12:53;52.83;;;44.53;;
15061;SDS011;7630;50.306;8.566;2023-10-19T16:16:54;58.90;;;44.07;;
15061;SDS011;7630;50.306;8.566;2023-10-19T16:20:55;63.17;;;48.63;;
15061;SDS011;7630;50.306;8.566;2023-10-19T16:24:57;61.27;;;48.33;;
15061;SDS011;7630;50.306;8.566;2023-10-19T16:28:58;67.80;;;50.90;;
15061;SDS011;7630;50.306;8.566;2023-10-19T16:32:59;61.17;;;46.63;;
15061;SDS011;7630;50.306;8.566;2023-10-19T16:37:00;58.40;;;41.50;;
15061;SDS011;7630;50.306;8.566;2023-10-19T16:41:02;54.17;;;40.87;;
15061;SDS011;7630;50.306;8.566;2023-10-19T16:45:03;52.07;;;39.93;;
15061;SDS011;7630;50.306;8.566;2023-10-19T16:49:06;41.70;;;34.77;;
15061;SDS011;7630;50.306;8.566;2023-10-19T16:53:07;44.13;;;34.87;;
15061;SDS011;7630;50.306;8.566;2023-10-19T16:57:08;40.03;;;35.50;;
15061;SDS011;7630;50.306;8.566;2023-10-19T17:01:10;35.17;;;31.80;;
15061;SDS011;7630;50.306;8.566;2023-10-19T17:05:11;34.13;;;30.63;;
15061;SDS011;7630;50.306;8.566;2023-10-19T17:09:17;35.80;;;32.27;;
15061;SDS011;7630;50.306;8.566;2023-10-19T17:13:20;33.13;;;29.60;;
15061;SDS011;7630;50.306;8.566;2023-10-19T17:17:21;32.93;;;29.73;;
15061;SDS011;7630;50.306;8.566;2023-10-19T17:21:23;30.67;;;27.80;;
15061;SDS011;7630;50.306;8.566;2023-10-19T17:25:24;31.67;;;28.83;;
15061;SDS011;7630;50.306;8.566;2023-10-19T17:29:25;31.40;;;28.33;;
15061;SDS011;7630;50.306;8.566;2023-10-19T17:33:27;33.17;;;29.97;;
15061;SDS011;7630;50.306;8.566;2023-10-19T17:37:29;30.30;;;27.47;;
15061;SDS011;7630;50.306;8.566;2023-10-19T17:41:30;34.93;;;31.53;;
15061;SDS011;7630;50.306;8.566;2023-10-19T17:45:31;38.37;;;34.33;;
15061;SDS011;7630;50.306;8.566;2023-10-19T17:49:33;33.47;;;30.40;;
15061;SDS011;7630;50.306;8.566;2023-10-19T17:53:35;41.70;;;34.23;;
15061;SDS011;7630;50.306;8.566;2023-10-19T17:57:36;36.43;;;33.17;;
15061;SDS011;7630;50.306;8.566;2023-10-19T18:01:38;35.67;;;32.23;;
15061;SDS011;7630;50.306;8.566;2023-10-19T18:05:49;34.53;;;31.60;;
15061;SDS011;7630;50.306;8.566;2023-10-19T18:09:48;31.13;;;28.17;;
15061;SDS011;7630;50.306;8.566;2023-10-19T18:13:50;27.10;;;24.47;;
15061;SDS011;7630;50.306;8.566;2023-10-19T18:17:53;26.40;;;24.03;;
15061;SDS011;7630;50.306;8.566;2023-10-19T18:26:04;26.37;;;24.17;;
15061;SDS011;7630;50.306;8.566;2023-10-19T18:30:07;26.87;;;24.40;;
15061;SDS011;7630;50.306;8.566;2023-10-19T18:34:10;29.53;;;26.83;;
15061;SDS011;7630;50.306;8.566;2023-10-19T18:38:12;29.33;;;26.73;;
15061;SDS011;7630;50.306;8.566;2023-10-19T18:42:13;33.63;;;30.43;;
15061;SDS011;7630;50.306;8.566;2023-10-19T18:46:15;31.60;;;28.70;;
15061;SDS011;7630;50.306;8.566;2023-10-19T18:50:16;30.23;;;27.43;;
15061;SDS011;7630;50.306;8.566;2023-10-19T18:54:19;30.90;;;27.70;;
15061;SDS011;7630;50.306;8.566;2023-10-19T18:58:21;34.83;;;31.33;;
15061;SDS011;7630;50.306;8.566;2023-10-19T19:02:24;31.47;;;28.47;;
15061;SDS011;7630;50.306;8.566;2023-10-19T19:06:25;29.50;;;26.73;;
15061;SDS011;7630;50.306;8.566;2023-10-19T19:10:28;31.70;;;28.83;;
15061;SDS011;7630;50.306;8.566;2023-10-19T19:14:31;39.40;;;35.50;;
15061;SDS011;7630;50.306;8.566;2023-10-19T19:18:32;29.40;;;26.80;;
15061;SDS011;7630;50.306;8.566;2023-10-19T19:22:34;31.50;;;27.97;;
15061;SDS011;7630;50.306;8.566;2023-10-19T19:26:35;31.27;;;28.57;;
15061;SDS011;7630;50.306;8.566;2023-10-19T19:30:38;28.30;;;25.63;;
15061;SDS011;7630;50.306;8.566;2023-10-19T19:34:40;27.23;;;24.87;;
15061;SDS011;7630;50.306;8.566;2023-10-19T19:38:43;28.37;;;25.87;;
15061;SDS011;7630;50.306;8.566;2023-10-19T19:42:46;27.23;;;24.83;;
15061;SDS011;7630;50.306;8.566;2023-10-19T19:46:47;28.37;;;25.87;;
15061;SDS011;7630;50.306;8.566;2023-10-19T19:50:49;30.80;;;27.70;;
15061;SDS011;7630;50.306;8.566;2023-10-19T19:54:51;30.00;;;27.50;;
15061;SDS011;7630;50.306;8.566;2023-10-19T19:58:54;29.80;;;27.20;;
15061;SDS011;7630;50.306;8.566;2023-10-19T20:02:55;33.70;;;30.83;;
15061;SDS011;7630;50.306;8.566;2023-10-19T20:06:57;28.80;;;26.30;;
15061;SDS011;7630;50.306;8.566;2023-10-19T20:10:58;33.87;;;30.80;;
15061;SDS011;7630;50.306;8.566;2023-10-19T20:14:59;34.57;;;31.17;;
15061;SDS011;7630;50.306;8.566;2023-10-19T20:19:00;32.10;;;29.13;;
15061;SDS011;7630;50.306;8.566;2023-10-19T20:23:02;31.67;;;29.03;;
15061;SDS011;7630;50.306;8.566;2023-10-19T20:27:05;28.30;;;26.00;;
15061;SDS011;7630;50.306;8.566;2023-10-19T20:31:06;28.10;;;25.53;;
15061;SDS011;7630;50.306;8.566;2023-10-19T20:35:11;27.13;;;24.80;;
15061;SDS011;7630;50.306;8.566;2023-10-19T20:39:13;28.27;;;25.80;;
15061;SDS011;7630;50.306;8.566;2023-10-19T20:43:15;28.37;;;25.90;;
15061;SDS011;7630;50.306;8.566;2023-10-19T20:47:18;28.33;;;25.83;;
15061;SDS011;7630;50.306;8.566;2023-10-19T20:51:19;28.47;;;26.17;;
15061;SDS011;7630;50.306;8.566;2023-10-19T20:55:20;28.20;;;25.87;;
15061;SDS011;7630;50.306;8.566;2023-10-19T20:59:21;27.97;;;25.53;;
15061;SDS011;7630;50.306;8.566;2023-10-19T21:03:24;29.37;;;26.73;;
15061;SDS011;7630;50.306;8.566;2023-10-19T21:07:27;35.90;;;32.57;;
15061;SDS011;7630;50.306;8.566;2023-10-19T21:11:28;33.63;;;30.43;;
15061;SDS011;7630;50.306;8.566;2023-10-19T21:15:30;32.60;;;29.40;;
15061;SDS011;7630;50.306;8.566;2023-10-19T21:19:32;33.90;;;30.80;;
15061;SDS011;7630;50.306;8.566;2023-10-19T21:23:36;32.70;;;29.60;;
15061;SDS011;7630;50.306;8.566;2023-10-19T21:27:38;31.60;;;28.80;;
15061;SDS011;7630;50.306;8.566;2023-10-19T21:31:40;29.30;;;26.87;;
15061;SDS011;7630;50.306;8.566;2023-10-19T21:35:41;29.83;;;26.80;;
15061;SDS011;7630;50.306;8.566;2023-10-19T21:39:44;29.53;;;26.87;;
15061;SDS011;7630;50.306;8.566;2023-10-19T21:43:45;29.60;;;27.00;;
15061;SDS011;7630;50.306;8.566;2023-10-19T21:47:46;35.87;;;28.43;;
15061;SDS011;7630;50.306;8.566;2023-10-19T21:51:47;30.43;;;27.53;;
15061;SDS011;7630;50.306;8.566;2023-10-19T21:55:51;31.43;;;28.40;;
15061;SDS011;7630;50.306;8.566;2023-10-19T21:59:54;27.90;;;25.20;;
15061;SDS011;7630;50.306;8.566;2023-10-19T22:03:55;29.20;;;26.30;;
15061;SDS011;7630;50.306;8.566;2023-10-19T22:07:57;29.63;;;26.70;;
15061;SDS011;7630;50.306;8.566;2023-10-19T22:11:58;27.70;;;25.10;;
15061;SDS011;7630;50.306;8.566;2023-10-19T22:16:05;29.40;;;26.70;;
15061;SDS011;7630;50.306;8.566;2023-10-19T22:20:08;27.93;;;25.33;;
15061;SDS011;7630;50.306;8.566;2023-10-19T22:24:10;23.83;;;21.60;;
15061;SDS011;7630;50.306;8.566;2023-10-19T22:28:11;22.43;;;18.37;;
15061;SDS011;7630;50.306;8.566;2023-10-19T22:32:14;16.23;;;14.80;;
15061;SDS011;7630;50.306;8.566;2023-10-19T22:36:15;9.77;;;8.97;;
15061;SDS011;7630;50.306;8.566;2023-10-19T22:40:16;11.13;;;10.13;;
15061;SDS011;7630;50.306;8.566;2023-10-19T22:44:18;11.43;;;10.43;;
15061;SDS011;7630;50.306;8.566;2023-10-19T22:48:20;10.20;;;9.37;;
15061;SDS011;7630;50.306;8.566;2023-10-19T22:52:24;10.20;;;9.30;;
15061;SDS011;7630;50.306;8.566;2023-10-19T22:56:27;10.07;;;9.33;;
15061;SDS011;7630;50.306;8.566;2023-10-19T23:00:28;10.57;;;9.67;;
15061;SDS011;7630;50.306;8.566;2023-10-19T23:04:29;10.80;;;9.83;;
15061;SDS011;7630;50.306;8.566;2023-10-19T23:08:31;15.07;;;13.73;;
15061;SDS011;7630;50.306;8.566;2023-10-19T23:12:34;14.50;;;13.13;;
15061;SDS011;7630;50.306;8.566;2023-10-19T23:16:35;14.00;;;12.80;;
15061;SDS011;7630;50.306;8.566;2023-10-19T23:20:37;17.53;;;15.83;;
15061;SDS011;7630;50.306;8.566;2023-10-19T23:24:40;23.93;;;19.37;;
15061;SDS011;7630;50.306;8.566;2023-10-19T23:28:47;24.83;;;19.50;;
15061;SDS011;7630;50.306;8.566;2023-10-19T23:32:50;29.47;;;20.73;;
15061;SDS011;7630;50.306;8.566;2023-10-19T23:36:52;31.60;;;22.47;;
15061;SDS011;7630;50.306;8.566;2023-10-19T23:40:53;41.27;;;24.47;;
15061;SDS011;7630;50.306;8.566;2023-10-19T23:44:56;42.80;;;26.47;;
15061;SDS011;7630;50.306;8.566;2023-10-19T23:48:57;41.43;;;26.60;;
15061;SDS011;7630;50.306;8.566;2023-10-19T23:52:58;107.97;;;28.37;;
15061;SDS011;7630;50.306;8.566;2023-10-19T23:57:00;163.20;;;31.50;;
